DND weather

Dundee Airport
Dundee, Scotland, United Kingdom

Public forecast

Using degrees Celsius for public forecast. Weather courtesy of forecast.io.

Current aviation weather report (METAR) for Dundee Airport

Report is more than 2 hours old.

Retrieved 2019/10/13 19:20 UTC (4 hours ago):

EGPN 131920Z 03006KT 9999 SHRA FEW018 BKN024 BKN040 11/10 Q1001

Aviation forecast (TAF) for Dundee Airport

Forecast is more than 12 hours old.

Retrieved 2019/01/15 18:54 UTC (9 months ago):

TAF TAF EGPN 151750Z 1518/1621 CNL